Time;durP1;ratioP1;P1;durP2;ratioP2;P2;SDS_P1;SDS_P2;PMS_P1;PMS_P2;Temp;Humidity;BMP_temperature;BMP_pressure;BME280_temperature;BME280_humidity;BME280_pressure;Samples;Min_cycle;Max_cycle;Signal;HPM_P1;HPM_P2
2022/03/23 00:01:22;;;;;;;40.65;24.23;;;;;;;;;;5010581;28;93989;-74
2022/03/23 00:03:49;;;;;;;35.25;24.10;;;;;;;;;;5004619;28;96495;-74
2022/03/23 00:06:17;;;;;;;33.13;23.23;;;;;;;;;;5010541;28;92483;-74
2022/03/23 00:08:44;;;;;;;35.65;24.83;;;;;;;;;;5010803;28;94176;-74
2022/03/23 00:11:10;;;;;;;40.05;23.02;;;;;;;;;;5014491;28;93162;-74
2022/03/23 00:13:37;;;;;;;35.08;24.13;;;;;;;;;;5010357;28;93380;-73
2022/03/23 00:16:04;;;;;;;36.13;23.92;;;;;;;;;;5009984;28;93489;-73
2022/03/23 00:18:30;;;;;;;37.28;24.08;;;;;;;;;;5009547;28;92540;-73
2022/03/23 00:20:57;;;;;;;36.08;22.75;;;;;;;;;;5001052;28;93832;-74
2022/03/23 00:23:23;;;;;;;34.22;23.15;;;;;;;;;;5011440;28;93279;-73
2022/03/23 00:25:50;;;;;;;40.15;23.88;;;;;;;;;;5011888;28;93077;-73
2022/03/23 00:28:17;;;;;;;31.85;22.40;;;;;;;;;;5012435;28;94825;-74
2022/03/23 00:30:43;;;;;;;35.15;22.65;;;;;;;;;;5017200;28;94335;-74
2022/03/23 00:33:28;;;;;;;39.65;23.23;;;;;;;;;;4994267;28;94016;-74
2022/03/23 00:35:55;;;;;;;40.95;23.70;;;;;;;;;;4996782;28;93207;-74
2022/03/23 00:38:22;;;;;;;42.78;24.42;;;;;;;;;;5012395;28;92487;-74
2022/03/23 00:40:49;;;;;;;39.42;23.77;;;;;;;;;;5013436;28;92987;-74
2022/03/23 00:43:15;;;;;;;40.28;25.08;;;;;;;;;;5014325;28;93469;-74
2022/03/23 00:45:42;;;;;;;37.70;24.73;;;;;;;;;;5015578;28;91706;-74
2022/03/23 00:48:08;;;;;;;42.70;24.77;;;;;;;;;;5013323;28;92491;-74
2022/03/23 00:50:35;;;;;;;44.20;25.00;;;;;;;;;;5013610;28;93399;-74
2022/03/23 00:53:02;;;;;;;38.88;25.73;;;;;;;;;;5012671;28;94931;-74
2022/03/23 00:55:28;;;;;;;46.67;25.77;;;;;;;;;;5011163;28;95318;-74
2022/03/23 00:57:55;;;;;;;47.67;25.08;;;;;;;;;;5013979;28;92522;-74
2022/03/23 01:00:22;;;;;;;39.22;24.60;;;;;;;;;;5014166;28;92894;-74
2022/03/23 01:02:49;;;;;;;41.35;24.67;;;;;;;;;;5010981;28;94158;-74
2022/03/23 01:05:16;;;;;;;38.47;24.95;;;;;;;;;;5013215;28;92493;-73
2022/03/23 01:07:43;;;;;;;33.85;23.85;;;;;;;;;;5013134;28;94170;-74
2022/03/23 01:10:11;;;;;;;43.90;26.20;;;;;;;;;;5013216;28;92671;-73
2022/03/23 01:12:41;;;;;;;42.58;24.85;;;;;;;;;;5011799;28;93315;-73
2022/03/23 01:15:08;;;;;;;42.30;24.95;;;;;;;;;;5016026;28;94003;-73
2022/03/23 01:17:35;;;;;;;38.20;25.67;;;;;;;;;;5012125;28;94942;-73
2022/03/23 01:20:03;;;;;;;47.70;27.27;;;;;;;;;;4995427;28;95580;-74
2022/03/23 01:22:29;;;;;;;39.78;24.98;;;;;;;;;;5009085;27;92653;-73
2022/03/23 01:24:55;;;;;;;38.42;26.15;;;;;;;;;;4994400;28;92432;-74
2022/03/23 01:27:22;;;;;;;42.63;26.00;;;;;;;;;;4997182;28;93144;-73
2022/03/23 01:29:48;;;;;;;40.30;25.77;;;;;;;;;;5012845;28;93132;-74
2022/03/23 01:32:15;;;;;;;46.25;25.75;;;;;;;;;;5013048;28;92658;-73
2022/03/23 01:34:41;;;;;;;36.72;25.52;;;;;;;;;;5014459;28;92882;-73
2022/03/23 01:37:07;;;;;;;43.60;25.70;;;;;;;;;;5012505;28;95230;-73
2022/03/23 01:39:34;;;;;;;39.67;25.38;;;;;;;;;;4999441;28;92861;-73
2022/03/23 01:42:01;;;;;;;39.42;25.45;;;;;;;;;;5012049;28;96352;-73
2022/03/23 01:44:27;;;;;;;42.08;25.35;;;;;;;;;;5010632;28;93151;-73
2022/03/23 01:47:12;;;;;;;40.88;25.73;;;;;;;;;;5012581;28;95569;-73
2022/03/23 01:49:40;;;;;;;42.80;27.38;;;;;;;;;;5013458;28;93518;-73
2022/03/23 01:52:07;;;;;;;40.92;26.83;;;;;;;;;;5010436;28;93238;-73
2022/03/23 01:54:34;;;;;;;46.80;27.65;;;;;;;;;;5011068;28;93750;-73
2022/03/23 01:57:02;;;;;;;45.78;26.23;;;;;;;;;;5012223;28;94363;-73
2022/03/23 01:59:28;;;;;;;46.95;24.85;;;;;;;;;;5013318;28;92745;-73
2022/03/23 02:01:56;;;;;;;39.85;27.15;;;;;;;;;;5028593;28;95433;-73
2022/03/23 02:04:23;;;;;;;38.03;25.23;;;;;;;;;;5010918;28;92519;-73
2022/03/23 02:06:50;;;;;;;34.15;24.85;;;;;;;;;;5010255;28;95689;-73
2022/03/23 02:09:19;;;;;;;49.03;26.58;;;;;;;;;;5011054;28;93100;-73
2022/03/23 02:11:49;;;;;;;44.20;25.65;;;;;;;;;;5010281;28;93181;-73
2022/03/23 02:14:16;;;;;;;39.28;26.35;;;;;;;;;;5011551;28;94551;-73
2022/03/23 02:16:44;;;;;;;44.97;25.30;;;;;;;;;;5010982;28;95307;-73
2022/03/23 02:19:11;;;;;;;39.55;26.65;;;;;;;;;;5010880;28;92925;-73
2022/03/23 02:21:45;;;;;;;51.20;26.67;;;;;;;;;;5013646;28;95144;-73
2022/03/23 02:24:14;;;;;;;40.53;26.10;;;;;;;;;;5013603;28;91878;-73
2022/03/23 02:26:41;;;;;;;45.78;25.30;;;;;;;;;;5008979;28;93665;-73
2022/03/23 02:29:07;;;;;;;40.90;26.35;;;;;;;;;;5012146;28;93610;-73
2022/03/23 02:31:34;;;;;;;40.63;27.05;;;;;;;;;;5011548;28;94869;-73
2022/03/23 02:34:01;;;;;;;50.00;28.95;;;;;;;;;;5011788;28;95514;-73
2022/03/23 02:36:27;;;;;;;48.05;29.52;;;;;;;;;;5012621;28;94181;-73
2022/03/23 02:38:54;;;;;;;41.17;27.00;;;;;;;;;;5012064;28;93712;-73
2022/03/23 02:41:20;;;;;;;44.85;27.98;;;;;;;;;;5015367;28;93229;-73
2022/03/23 02:43:46;;;;;;;44.97;28.25;;;;;;;;;;5010076;28;92568;-73
2022/03/23 02:46:17;;;;;;;45.92;29.33;;;;;;;;;;5012715;28;93974;-73
2022/03/23 02:48:44;;;;;;;39.95;26.45;;;;;;;;;;5011352;28;93119;-73
2022/03/23 02:51:10;;;;;;;40.83;26.40;;;;;;;;;;5012749;28;93119;-73
2022/03/23 03:02:21;;;;;;;45.05;27.67;;;;;;;;;;4993185;28;94018;-73
2022/03/23 03:04:49;;;;;;;47.42;28.10;;;;;;;;;;5010799;28;94653;-73
2022/03/23 03:07:15;;;;;;;42.53;28.45;;;;;;;;;;5011250;28;93928;-73
2022/03/23 03:09:42;;;;;;;46.55;28.60;;;;;;;;;;5012040;28;93497;-73
2022/03/23 03:12:10;;;;;;;43.75;29.05;;;;;;;;;;5011486;28;92685;-73
2022/03/23 03:14:37;;;;;;;43.08;27.27;;;;;;;;;;5012343;28;93966;-73
2022/03/23 03:17:04;;;;;;;54.05;29.77;;;;;;;;;;5009021;28;94131;-73
2022/03/23 03:19:31;;;;;;;50.47;28.60;;;;;;;;;;5014695;28;92493;-73
2022/03/23 03:21:58;;;;;;;47.30;28.98;;;;;;;;;;5010728;28;94829;-73
2022/03/23 03:24:24;;;;;;;48.65;29.40;;;;;;;;;;5012447;28;93129;-73
2022/03/23 03:26:50;;;;;;;47.22;27.95;;;;;;;;;;5014730;28;93153;-73
2022/03/23 03:29:17;;;;;;;43.97;29.40;;;;;;;;;;5011065;28;94503;-73
2022/03/23 03:31:43;;;;;;;45.58;29.20;;;;;;;;;;5011189;28;92594;-73
2022/03/23 03:34:10;;;;;;;50.78;29.95;;;;;;;;;;5008268;28;94083;-73
2022/03/23 03:36:36;;;;;;;43.28;26.83;;;;;;;;;;4991317;28;94105;-73
2022/03/23 03:39:03;;;;;;;42.78;29.00;;;;;;;;;;5008476;28;91811;-73
2022/03/23 03:41:31;;;;;;;42.63;28.77;;;;;;;;;;5010776;28;93315;-73
2022/03/23 03:43:57;;;;;;;47.75;30.02;;;;;;;;;;5010503;28;93351;-73
2022/03/23 03:46:24;;;;;;;39.08;28.00;;;;;;;;;;5010601;28;95575;-73
2022/03/23 03:48:50;;;;;;;49.15;29.20;;;;;;;;;;5013964;28;97783;-73
2022/03/23 03:51:17;;;;;;;49.83;29.67;;;;;;;;;;5006906;28;92737;-73
2022/03/23 03:53:43;;;;;;;46.97;27.95;;;;;;;;;;5010095;28;93137;-73
2022/03/23 03:56:10;;;;;;;44.25;27.40;;;;;;;;;;5011464;28;94637;-73
2022/03/23 03:58:36;;;;;;;43.65;27.10;;;;;;;;;;5010359;28;92835;-73
2022/03/23 04:01:03;;;;;;;39.20;26.13;;;;;;;;;;5013669;28;94254;-73
2022/03/23 04:03:30;;;;;;;47.13;29.50;;;;;;;;;;5014740;28;93361;-73
2022/03/23 04:05:56;;;;;;;45.30;29.48;;;;;;;;;;5013322;28;92491;-74
2022/03/23 04:08:22;;;;;;;41.97;27.55;;;;;;;;;;5010096;28;93979;-73
2022/03/23 04:10:49;;;;;;;47.25;29.15;;;;;;;;;;5007252;28;96599;-73
2022/03/23 04:13:16;;;;;;;45.95;27.80;;;;;;;;;;5014011;28;96650;-74
2022/03/23 04:15:42;;;;;;;35.45;26.42;;;;;;;;;;5014324;28;95983;-73
2022/03/23 04:18:08;;;;;;;46.90;29.42;;;;;;;;;;5014505;28;92430;-73
2022/03/23 04:20:35;;;;;;;44.10;27.88;;;;;;;;;;5014616;28;94226;-73
2022/03/23 04:23:02;;;;;;;45.63;27.92;;;;;;;;;;5015225;28;94128;-73
2022/03/23 04:25:28;;;;;;;40.17;26.45;;;;;;;;;;5007215;28;92548;-73
2022/03/23 04:27:55;;;;;;;37.45;27.00;;;;;;;;;;4995602;28;93041;-74
2022/03/23 04:30:23;;;;;;;43.20;28.17;;;;;;;;;;5006347;28;94211;-73
2022/03/23 04:32:50;;;;;;;41.45;26.02;;;;;;;;;;5017221;28;92860;-73
2022/03/23 04:35:17;;;;;;;41.33;28.27;;;;;;;;;;5010919;28;96741;-73
2022/03/23 04:37:44;;;;;;;48.08;26.88;;;;;;;;;;5015236;28;92836;-74
2022/03/23 04:40:12;;;;;;;44.97;28.90;;;;;;;;;;5012903;28;93833;-73
2022/03/23 04:42:40;;;;;;;45.88;28.80;;;;;;;;;;5007479;28;94564;-73
2022/03/23 04:45:07;;;;;;;39.35;29.15;;;;;;;;;;5010002;28;92443;-73
2022/03/23 04:47:34;;;;;;;39.15;28.35;;;;;;;;;;5013065;28;93108;-73
2022/03/23 04:50:00;;;;;;;38.72;27.10;;;;;;;;;;5012775;28;93560;-73
2022/03/23 04:52:27;;;;;;;46.03;27.58;;;;;;;;;;5017302;28;91773;-73
2022/03/23 04:54:56;;;;;;;44.67;28.80;;;;;;;;;;5014067;28;92898;-73
2022/03/23 04:57:23;;;;;;;44.38;29.20;;;;;;;;;;5009815;28;93955;-73
2022/03/23 04:59:51;;;;;;;40.90;27.00;;;;;;;;;;5004595;28;95001;-73
2022/03/23 05:02:18;;;;;;;44.08;29.13;;;;;;;;;;5008799;28;94016;-74
2022/03/23 05:04:45;;;;;;;44.50;29.30;;;;;;;;;;5012535;28;92944;-73
2022/03/23 05:07:12;;;;;;;45.83;29.00;;;;;;;;;;5012660;28;94264;-74
2022/03/23 05:09:39;;;;;;;40.42;29.48;;;;;;;;;;5013357;28;94112;-73
2022/03/23 05:12:05;;;;;;;40.47;27.63;;;;;;;;;;5014318;28;93026;-73
2022/03/23 05:14:32;;;;;;;46.08;28.27;;;;;;;;;;5015514;28;93882;-73
2022/03/23 05:16:58;;;;;;;47.85;28.42;;;;;;;;;;5004900;28;91769;-74
2022/03/23 05:19:25;;;;;;;53.38;30.35;;;;;;;;;;5006856;28;93432;-73
2022/03/23 05:21:51;;;;;;;46.30;28.23;;;;;;;;;;5013394;28;93577;-73
2022/03/23 05:24:18;;;;;;;44.47;29.38;;;;;;;;;;5010966;28;95282;-73
2022/03/23 05:26:44;;;;;;;49.17;29.27;;;;;;;;;;5014144;28;96080;-74
2022/03/23 05:29:11;;;;;;;42.58;27.75;;;;;;;;;;5012291;28;93561;-73
2022/03/23 05:31:38;;;;;;;50.33;29.75;;;;;;;;;;5013963;28;92422;-73
2022/03/23 05:34:04;;;;;;;48.03;29.77;;;;;;;;;;5011085;28;94227;-74
2022/03/23 05:36:30;;;;;;;48.78;30.70;;;;;;;;;;5015962;28;94134;-73
2022/03/23 05:38:57;;;;;;;47.58;29.40;;;;;;;;;;5012831;28;93907;-73
2022/03/23 05:41:24;;;;;;;41.47;29.27;;;;;;;;;;5014155;28;93830;-74
2022/03/23 05:43:51;;;;;;;40.05;26.55;;;;;;;;;;5013427;28;92930;-74
2022/03/23 05:46:17;;;;;;;44.17;28.55;;;;;;;;;;5014615;28;93242;-74
2022/03/23 05:48:44;;;;;;;42.20;28.90;;;;;;;;;;5012533;28;95402;-73
2022/03/23 05:51:10;;;;;;;43.03;29.40;;;;;;;;;;5009628;28;92463;-73
2022/03/23 05:53:37;;;;;;;51.80;30.20;;;;;;;;;;5013741;28;94585;-73
2022/03/23 05:56:06;;;;;;;50.22;28.80;;;;;;;;;;5013055;28;94226;-73
2022/03/23 05:58:32;;;;;;;49.03;29.27;;;;;;;;;;5015675;28;92486;-73
2022/03/23 06:00:59;;;;;;;39.22;28.10;;;;;;;;;;5012620;28;94301;-73
2022/03/23 06:03:25;;;;;;;41.30;28.77;;;;;;;;;;5012786;28;92740;-73
2022/03/23 06:05:52;;;;;;;48.60;29.13;;;;;;;;;;5012059;28;93283;-74
2022/03/23 06:08:18;;;;;;;43.92;27.15;;;;;;;;;;5000338;28;94758;-73
2022/03/23 06:10:44;;;;;;;41.60;27.50;;;;;;;;;;5005745;28;92483;-73
2022/03/23 06:13:11;;;;;;;39.75;27.95;;;;;;;;;;5011518;28;94968;-72
2022/03/23 06:15:37;;;;;;;39.17;27.75;;;;;;;;;;5012025;28;94543;-76
2022/03/23 06:18:04;;;;;;;42.35;27.55;;;;;;;;;;5011426;28;92443;-76
2022/03/23 06:20:30;;;;;;;45.10;30.08;;;;;;;;;;5015265;28;93209;-74
2022/03/23 06:22:56;;;;;;;57.42;30.98;;;;;;;;;;5012832;28;92509;-74
2022/03/23 06:25:26;;;;;;;50.85;30.88;;;;;;;;;;5010175;28;94040;-74
2022/03/23 06:27:53;;;;;;;41.95;27.50;;;;;;;;;;5011310;28;94136;-74
2022/03/23 06:30:19;;;;;;;43.63;28.88;;;;;;;;;;5012521;28;92146;-77
2022/03/23 06:32:46;;;;;;;64.88;29.58;;;;;;;;;;5010024;28;93428;-73
2022/03/23 06:35:12;;;;;;;42.63;28.15;;;;;;;;;;5011957;28;93194;-74
2022/03/23 06:37:39;;;;;;;42.28;28.58;;;;;;;;;;5010201;28;94919;-74
2022/03/23 06:40:05;;;;;;;46.33;29.13;;;;;;;;;;5014702;28;94410;-74
2022/03/23 06:42:32;;;;;;;39.22;27.25;;;;;;;;;;5009531;28;92617;-75
2022/03/23 06:44:58;;;;;;;40.60;28.58;;;;;;;;;;5011867;28;93931;-74
2022/03/23 06:47:25;;;;;;;44.17;28.70;;;;;;;;;;5012019;28;93581;-74
2022/03/23 06:49:51;;;;;;;52.20;31.25;;;;;;;;;;5010497;28;94756;-74
2022/03/23 06:52:17;;;;;;;53.35;29.65;;;;;;;;;;5012607;28;94277;-72
2022/03/23 06:54:44;;;;;;;40.42;27.75;;;;;;;;;;5019026;27;93406;-75
2022/03/23 06:57:10;;;;;;;38.35;26.10;;;;;;;;;;5005092;28;93281;-74
2022/03/23 06:59:36;;;;;;;38.80;28.10;;;;;;;;;;5008090;28;93201;-74
2022/03/23 07:02:03;;;;;;;46.35;27.73;;;;;;;;;;5009128;28;96313;-74
2022/03/23 07:04:29;;;;;;;41.95;29.35;;;;;;;;;;5011154;28;95419;-73
2022/03/23 07:06:56;;;;;;;43.90;28.73;;;;;;;;;;5010575;27;94724;-74
2022/03/23 07:09:31;;;;;;;50.13;29.05;;;;;;;;;;5010894;28;92457;-74
2022/03/23 07:11:58;;;;;;;50.50;27.75;;;;;;;;;;5011139;28;93938;-74
2022/03/23 07:14:25;;;;;;;49.15;28.15;;;;;;;;;;5009783;28;93572;-74
2022/03/23 07:16:52;;;;;;;38.50;27.23;;;;;;;;;;5009291;28;92530;-74
2022/03/23 07:19:18;;;;;;;42.72;28.83;;;;;;;;;;5011088;28;95436;-75
2022/03/23 07:21:44;;;;;;;39.17;26.02;;;;;;;;;;5008971;28;93245;-75
2022/03/23 07:24:11;;;;;;;36.08;24.00;;;;;;;;;;5005858;28;92536;-75
2022/03/23 07:26:37;;;;;;;36.92;24.38;;;;;;;;;;5008226;28;96176;-73
2022/03/23 07:29:04;;;;;;;36.85;24.30;;;;;;;;;;5011238;28;92787;-73
2022/03/23 07:31:30;;;;;;;39.63;23.35;;;;;;;;;;5011689;28;93991;-73
2022/03/23 07:33:57;;;;;;;36.63;23.10;;;;;;;;;;5012023;28;94239;-73
2022/03/23 07:36:24;;;;;;;43.35;23.50;;;;;;;;;;5011075;28;92445;-73
2022/03/23 07:38:51;;;;;;;44.17;22.20;;;;;;;;;;5012176;28;94708;-73
2022/03/23 07:41:17;;;;;;;38.28;25.13;;;;;;;;;;5011425;28;93332;-73
2022/03/23 07:43:43;;;;;;;34.72;22.67;;;;;;;;;;5011899;28;91771;-73
2022/03/23 07:46:10;;;;;;;41.65;23.70;;;;;;;;;;5013328;28;93523;-73
2022/03/23 07:48:36;;;;;;;33.92;23.02;;;;;;;;;;5011068;28;94115;-73
2022/03/23 07:51:03;;;;;;;37.92;23.65;;;;;;;;;;5007322;28;94963;-73
2022/03/23 07:53:29;;;;;;;43.03;23.40;;;;;;;;;;5011208;28;94619;-73
2022/03/23 07:55:56;;;;;;;40.03;23.80;;;;;;;;;;5010718;28;92950;-73
2022/03/23 07:58:22;;;;;;;41.83;24.77;;;;;;;;;;5000157;28;92960;-73
2022/03/23 08:00:48;;;;;;;39.53;23.60;;;;;;;;;;5011489;28;94049;-73
2022/03/23 08:03:15;;;;;;;39.53;24.75;;;;;;;;;;5010995;28;92823;-73
2022/03/23 08:05:42;;;;;;;36.85;22.70;;;;;;;;;;5011830;28;93970;-73
2022/03/23 08:08:09;;;;;;;53.60;25.67;;;;;;;;;;5015008;28;93389;-73
2022/03/23 08:10:36;;;;;;;32.70;20.95;;;;;;;;;;5010756;28;92516;-73
2022/03/23 08:13:03;;;;;;;45.95;25.02;;;;;;;;;;5011849;28;94279;-73
2022/03/23 08:15:29;;;;;;;42.53;26.65;;;;;;;;;;5009832;28;95388;-75
2022/03/23 08:17:56;;;;;;;31.92;22.98;;;;;;;;;;5010792;28;96634;-73
2022/03/23 08:20:37;;;;;;;39.92;23.48;;;;;;;;;;5011093;28;93271;-73
2022/03/23 08:23:05;;;;;;;30.17;22.17;;;;;;;;;;5011796;28;92677;-73
2022/03/23 08:25:32;;;;;;;30.88;20.63;;;;;;;;;;5010235;28;93580;-73
2022/03/23 08:28:02;;;;;;;37.65;22.80;;;;;;;;;;5011395;28;94554;-73
2022/03/23 08:30:29;;;;;;;37.35;22.33;;;;;;;;;;5012875;28;92522;-73
2022/03/23 08:32:55;;;;;;;30.00;22.52;;;;;;;;;;5008816;27;92645;-72
2022/03/23 08:35:22;;;;;;;39.22;22.52;;;;;;;;;;5010040;28;92541;-72
2022/03/23 08:37:48;;;;;;;35.60;23.83;;;;;;;;;;5009383;28;94078;-72
2022/03/23 08:40:15;;;;;;;36.13;22.27;;;;;;;;;;5007238;28;96565;-72
2022/03/23 08:42:41;;;;;;;43.03;22.77;;;;;;;;;;5011070;28;93129;-72
2022/03/23 08:45:08;;;;;;;32.83;23.60;;;;;;;;;;5010681;28;93351;-74
2022/03/23 08:47:35;;;;;;;42.17;24.25;;;;;;;;;;5013246;28;92563;-73
2022/03/23 08:50:04;;;;;;;34.50;22.50;;;;;;;;;;5010929;28;93014;-73
2022/03/23 08:52:30;;;;;;;36.95;22.20;;;;;;;;;;5013586;28;94009;-73
2022/03/23 08:54:57;;;;;;;33.35;22.77;;;;;;;;;;5015094;27;92446;-73
2022/03/23 08:57:23;;;;;;;38.13;24.10;;;;;;;;;;5014908;28;93292;-73
2022/03/23 08:59:50;;;;;;;39.35;23.35;;;;;;;;;;5013998;28;93190;-73
2022/03/23 09:02:17;;;;;;;35.55;22.08;;;;;;;;;;5014028;28;93078;-73
2022/03/23 09:04:43;;;;;;;42.28;22.45;;;;;;;;;;5012557;28;94847;-73
2022/03/23 09:07:10;;;;;;;36.58;23.60;;;;;;;;;;5011641;28;95695;-74
2022/03/23 09:09:36;;;;;;;33.50;24.08;;;;;;;;;;5014525;28;92549;-74
2022/03/23 09:12:03;;;;;;;36.28;21.50;;;;;;;;;;5017264;28;93211;-73
2022/03/23 09:14:30;;;;;;;34.42;23.23;;;;;;;;;;5013089;28;93098;-73
2022/03/23 09:16:57;;;;;;;38.55;22.15;;;;;;;;;;5014303;28;93975;-73
2022/03/23 09:19:23;;;;;;;33.90;24.08;;;;;;;;;;5013952;28;93125;-73
2022/03/23 09:21:50;;;;;;;32.45;22.50;;;;;;;;;;5013995;28;91759;-73
2022/03/23 09:24:19;;;;;;;36.05;24.48;;;;;;;;;;5012981;28;93605;-74
2022/03/23 09:26:45;;;;;;;29.35;23.27;;;;;;;;;;5013883;28;94548;-73
2022/03/23 09:29:12;;;;;;;36.83;24.30;;;;;;;;;;5011347;28;94803;-73
2022/03/23 09:31:39;;;;;;;31.83;23.77;;;;;;;;;;5014016;28;95733;-73
2022/03/23 09:34:06;;;;;;;38.08;22.30;;;;;;;;;;5017136;28;94529;-73
2022/03/23 09:39:18;;;;;;;28.33;20.42;;;;;;;;;;5008378;28;94636;-74
2022/03/23 09:41:45;;;;;;;34.65;23.02;;;;;;;;;;5013096;28;94928;-74
2022/03/23 09:44:12;;;;;;;32.33;20.73;;;;;;;;;;5013334;28;94112;-74
2022/03/23 09:46:38;;;;;;;27.77;18.83;;;;;;;;;;5014444;28;92578;-74
2022/03/23 09:49:06;;;;;;;34.97;19.05;;;;;;;;;;5013041;28;92470;-74
2022/03/23 09:51:33;;;;;;;25.75;15.50;;;;;;;;;;5013460;28;93083;-74
2022/03/23 09:54:00;;;;;;;28.77;17.92;;;;;;;;;;5011829;28;96547;-74
2022/03/23 09:56:26;;;;;;;31.40;19.27;;;;;;;;;;5015707;28;92997;-74
2022/03/23 09:58:52;;;;;;;26.92;18.00;;;;;;;;;;5012124;28;94038;-74
2022/03/23 10:01:28;;;;;;;34.80;20.27;;;;;;;;;;5012193;28;92481;-74
2022/03/23 10:04:13;;;;;;;30.42;19.00;;;;;;;;;;5013188;28;93048;-74
2022/03/23 10:06:42;;;;;;;25.73;17.67;;;;;;;;;;5012990;28;93755;-74
2022/03/23 10:09:11;;;;;;;29.25;16.60;;;;;;;;;;5013454;28;93191;-74
2022/03/23 10:12:02;;;;;;;27.00;17.17;;;;;;;;;;5013276;28;93273;-74
2022/03/23 10:14:44;;;;;;;24.15;17.00;;;;;;;;;;5012965;28;94742;-74
2022/03/23 10:17:26;;;;;;;31.42;17.23;;;;;;;;;;5012372;28;92543;-74
2022/03/23 10:19:52;;;;;;;30.05;16.50;;;;;;;;;;5014531;28;94947;-74
2022/03/23 10:22:19;;;;;;;26.40;15.10;;;;;;;;;;5013147;28;92445;-74
2022/03/23 10:24:45;;;;;;;27.08;16.70;;;;;;;;;;5012541;28;93992;-74
2022/03/23 10:27:13;;;;;;;27.25;13.48;;;;;;;;;;5012548;28;94145;-74
2022/03/23 10:29:41;;;;;;;23.40;13.70;;;;;;;;;;5013790;28;92487;-74
2022/03/23 10:32:11;;;;;;;24.77;13.40;;;;;;;;;;5012343;28;94121;-74
2022/03/23 10:34:43;;;;;;;24.58;13.80;;;;;;;;;;5012879;28;93622;-74
2022/03/23 10:37:13;;;;;;;31.48;13.10;;;;;;;;;;5013509;28;92266;-74
2022/03/23 10:39:43;;;;;;;30.73;14.50;;;;;;;;;;5012147;28;93151;-75
2022/03/23 10:42:17;;;;;;;33.42;16.00;;;;;;;;;;5015538;28;94163;-77
2022/03/23 10:44:46;;;;;;;40.10;15.45;;;;;;;;;;5017020;28;97034;-73
2022/03/23 10:47:24;;;;;;;28.15;13.75;;;;;;;;;;5032552;27;93563;-73
2022/03/23 10:49:51;;;;;;;26.20;13.43;;;;;;;;;;5032888;28;92404;-73
2022/03/23 10:52:18;;;;;;;27.65;15.48;;;;;;;;;;5031677;27;94185;-73
2022/03/23 10:54:54;;;;;;;25.35;12.32;;;;;;;;;;5032733;27;93384;-73
2022/03/23 10:57:21;;;;;;;30.88;11.82;;;;;;;;;;5015729;27;93625;-73
2022/03/23 10:59:47;;;;;;;25.50;12.88;;;;;;;;;;5011713;28;94459;-73
2022/03/23 11:02:14;;;;;;;24.20;12.25;;;;;;;;;;5015723;28;92687;-73
2022/03/23 11:04:44;;;;;;;26.02;12.18;;;;;;;;;;5012398;28;92636;-73
2022/03/23 11:07:23;;;;;;;30.05;10.98;;;;;;;;;;5009169;28;93441;-73
2022/03/23 11:18:06;;;;;;;21.95;10.13;;;;;;;;;;5007060;28;92637;-73
2022/03/23 11:20:41;;;;;;;27.30;9.75;;;;;;;;;;5005529;28;94699;-73
2022/03/23 11:23:35;;;;;;;26.85;9.93;;;;;;;;;;5006775;28;94008;-73
2022/03/23 11:26:11;;;;;;;21.98;9.20;;;;;;;;;;5001178;28;92764;-74
2022/03/23 11:28:38;;;;;;;20.45;9.15;;;;;;;;;;5012253;28;92376;-74
2022/03/23 11:31:07;;;;;;;29.40;10.50;;;;;;;;;;5011199;28;92615;-74
2022/03/23 11:33:34;;;;;;;29.10;9.77;;;;;;;;;;5009979;28;93152;-74
2022/03/23 11:36:02;;;;;;;23.58;9.93;;;;;;;;;;5008208;28;97052;-73
2022/03/23 11:38:29;;;;;;;24.08;9.05;;;;;;;;;;5013070;28;92537;-74
2022/03/23 11:40:57;;;;;;;26.02;8.20;;;;;;;;;;5012119;28;93884;-74
2022/03/23 11:43:24;;;;;;;21.10;8.10;;;;;;;;;;5012407;28;93957;-74
2022/03/23 11:46:11;;;;;;;26.73;8.57;;;;;;;;;;5008224;28;92731;-73
2022/03/23 11:48:56;;;;;;;21.25;8.75;;;;;;;;;;5014784;28;94119;-74
2022/03/23 11:51:35;;;;;;;22.52;9.15;;;;;;;;;;5011163;28;93133;-73
2022/03/23 11:54:13;;;;;;;27.73;9.95;;;;;;;;;;5013433;28;91758;-73
2022/03/23 11:56:46;;;;;;;18.77;8.25;;;;;;;;;;5010639;28;94841;-73
2022/03/23 11:59:22;;;;;;;30.00;9.73;;;;;;;;;;5011285;28;92472;-73
2022/03/23 12:01:50;;;;;;;16.67;8.95;;;;;;;;;;5008273;28;96913;-73
2022/03/23 12:04:18;;;;;;;22.27;9.23;;;;;;;;;;5010604;28;93346;-73
2022/03/23 12:06:45;;;;;;;15.07;9.90;;;;;;;;;;5011537;28;93003;-73
2022/03/23 12:09:30;;;;;;;16.25;9.15;;;;;;;;;;5011871;28;93472;-73
2022/03/23 12:11:57;;;;;;;23.17;9.60;;;;;;;;;;5013556;28;93113;-73
2022/03/23 12:14:24;;;;;;;30.92;10.27;;;;;;;;;;5012478;28;93164;-73
2022/03/23 12:16:51;;;;;;;17.70;9.23;;;;;;;;;;5010180;28;93079;-73
2022/03/23 12:19:57;;;;;;;24.08;9.10;;;;;;;;;;5009021;28;92906;-74
2022/03/23 12:22:33;;;;;;;22.83;9.20;;;;;;;;;;5008201;28;94409;-74
2022/03/23 12:25:18;;;;;;;33.05;9.55;;;;;;;;;;5012565;28;93693;-74
2022/03/23 12:28:02;;;;;;;31.02;9.38;;;;;;;;;;4997133;28;95013;-74
2022/03/23 12:30:29;;;;;;;25.45;9.32;;;;;;;;;;5009760;28;95525;-74
2022/03/23 12:33:05;;;;;;;26.65;8.45;;;;;;;;;;5013894;28;94742;-74
2022/03/23 12:35:32;;;;;;;18.23;7.90;;;;;;;;;;5013902;28;92495;-73
2022/03/23 12:38:02;;;;;;;25.15;9.18;;;;;;;;;;5016779;28;93140;-73
2022/03/23 12:40:47;;;;;;;26.75;9.02;;;;;;;;;;5013676;27;92996;-71
2022/03/23 12:43:32;;;;;;;14.18;7.97;;;;;;;;;;5013875;28;93022;-71
2022/03/23 12:45:59;;;;;;;34.40;9.07;;;;;;;;;;5017004;28;92593;-74
2022/03/23 12:59:35;;;;;;;23.70;8.57;;;;;;;;;;5014391;28;94382;-73
2022/03/23 13:02:20;;;;;;;17.45;9.05;;;;;;;;;;5007501;28;92497;-74
2022/03/23 13:04:47;;;;;;;26.02;11.02;;;;;;;;;;5010731;28;94415;-76
2022/03/23 13:07:29;;;;;;;25.23;11.43;;;;;;;;;;4997494;28;95128;-74
2022/03/23 13:10:15;;;;;;;26.42;10.88;;;;;;;;;;4999760;28;94261;-74
2022/03/23 13:12:44;;;;;;;20.02;11.70;;;;;;;;;;4993074;28;95023;-72
2022/03/23 13:15:15;;;;;;;20.55;11.27;;;;;;;;;;4997786;28;94295;-72
2022/03/23 13:17:45;;;;;;;25.20;11.50;;;;;;;;;;4992991;28;94673;-72
2022/03/23 13:20:16;;;;;;;19.30;8.32;;;;;;;;;;4998872;28;98144;-72
2022/03/23 13:22:44;;;;;;;22.80;9.07;;;;;;;;;;5009349;28;92462;-72
2022/03/23 13:25:13;;;;;;;22.55;9.55;;;;;;;;;;5014236;28;94171;-72
2022/03/23 13:27:40;;;;;;;18.48;9.43;;;;;;;;;;5013637;28;95723;-72
2022/03/23 13:30:13;;;;;;;19.85;8.60;;;;;;;;;;5015655;27;92496;-72
2022/03/23 13:32:40;;;;;;;23.70;9.45;;;;;;;;;;5014436;28;93920;-72
2022/03/23 13:35:11;;;;;;;15.77;8.52;;;;;;;;;;5013510;28;93293;-72
2022/03/23 13:37:49;;;;;;;;;;;;;;;;;;5014643;28;91928;-72
2022/03/23 13:40:16;;;;;;;27.92;10.35;;;;;;;;;;5011081;28;120907;-72
2022/03/23 13:45:31;;;;;;;20.25;9.80;;;;;;;;;;5006217;28;94937;-72
2022/03/23 13:47:57;;;;;;;25.52;10.57;;;;;;;;;;5007690;28;94228;-72
2022/03/23 13:50:26;;;;;;;23.30;8.25;;;;;;;;;;5011463;28;93704;-72
2022/03/23 13:52:52;;;;;;;25.33;8.75;;;;;;;;;;5010271;28;93189;-72
2022/03/23 13:55:18;;;;;;;28.80;10.55;;;;;;;;;;5012303;28;94027;-72
2022/03/23 13:57:47;;;;;;;27.27;10.70;;;;;;;;;;5010935;28;92711;-72
2022/03/23 14:00:23;;;;;;;27.70;10.60;;;;;;;;;;5011106;28;93808;-72
2022/03/23 14:02:50;;;;;;;25.73;10.23;;;;;;;;;;5008809;28;92779;-72
2022/03/23 14:05:19;;;;;;;22.88;9.55;;;;;;;;;;5015186;28;93351;-72
2022/03/23 14:07:46;;;;;;;23.58;9.82;;;;;;;;;;5011483;28;94093;-73
2022/03/23 14:10:12;;;;;;;25.23;10.68;;;;;;;;;;5009543;28;96685;-72
2022/03/23 14:12:39;;;;;;;25.30;11.45;;;;;;;;;;5010922;28;96238;-73
2022/03/23 14:15:25;;;;;;;30.75;11.98;;;;;;;;;;5009544;28;96681;-73
2022/03/23 14:17:57;;;;;;;22.73;11.07;;;;;;;;;;5009198;28;93642;-73
2022/03/23 14:20:24;;;;;;;;;;;;;;;;;;5013617;28;94026;-73
2022/03/23 14:22:52;;;;;;;23.90;10.52;;;;;;;;;;5013746;28;122255;-73
2022/03/23 14:25:19;;;;;;;23.25;9.90;;;;;;;;;;5013385;28;92490;-73
2022/03/23 14:27:48;;;;;;;18.63;9.27;;;;;;;;;;5017186;28;94083;-72
2022/03/23 14:30:16;;;;;;;23.95;11.45;;;;;;;;;;5013180;28;92728;-72
2022/03/23 14:32:54;;;;;;;22.90;9.15;;;;;;;;;;5013256;28;94304;-74
2022/03/23 14:35:24;;;;;;;17.67;8.40;;;;;;;;;;5012270;28;95400;-74
2022/03/23 14:37:52;;;;;;;18.85;9.77;;;;;;;;;;5013311;28;92385;-74
2022/03/23 14:40:19;;;;;;;19.65;9.75;;;;;;;;;;5013306;28;94166;-73
2022/03/23 14:42:45;;;;;;;20.17;9.20;;;;;;;;;;5013662;28;94223;-73
2022/03/23 14:45:30;;;;;;;26.98;9.40;;;;;;;;;;5012095;28;92476;-73
2022/03/23 14:48:22;;;;;;;19.93;9.20;;;;;;;;;;5014291;28;93421;-73
2022/03/23 14:50:50;;;;;;;22.10;10.80;;;;;;;;;;5017085;28;93430;-74
2022/03/23 14:53:18;;;;;;;23.05;9.90;;;;;;;;;;5013306;28;93586;-74
2022/03/23 14:55:45;;;;;;;22.25;9.38;;;;;;;;;;5013419;28;94189;-74
2022/03/23 14:58:23;;;;;;;29.70;9.93;;;;;;;;;;5010956;28;93366;-74
2022/03/23 15:00:51;;;;;;;25.97;8.83;;;;;;;;;;4994507;28;95072;-74
2022/03/23 15:03:18;;;;;;;16.90;7.63;;;;;;;;;;5001813;28;94359;-74